Time;durP1;ratioP1;P1;durP2;ratioP2;P2;SDS_P1;SDS_P2;PMS_P1;PMS_P2;Temp;Humidity;BMP_temperature;BMP_pressure;BME280_temperature;BME280_humidity;BME280_pressure;Samples;Min_cycle;Max_cycle;Signal;HPM_P1;HPM_P2
2024/01/19 00:00:54;;;;;;;74.90;41.40;;;5.00;99.90;;;;;;4146562;28;20086;-61
2024/01/19 00:02:55;;;;;;;69.67;41.13;;;5.00;99.90;;;;;;4147000;28;20076;-60
2024/01/19 00:04:56;;;;;;;70.43;39.90;;;5.00;99.90;;;;;;4146848;28;20030;-61
2024/01/19 00:06:57;;;;;;;70.30;39.80;;;5.00;99.90;;;;;;4146682;28;20477;-60
2024/01/19 00:08:59;;;;;;;69.13;38.27;;;5.00;99.90;;;;;;4146683;28;20034;-62
2024/01/19 00:11:00;;;;;;;66.40;37.37;;;5.00;99.90;;;;;;4146916;28;20038;-58
2024/01/19 00:13:01;;;;;;;61.10;35.50;;;5.10;99.90;;;;;;4146280;28;20099;-60
2024/01/19 00:15:09;;;;;;;64.10;36.27;;;5.00;99.90;;;;;;4146347;28;20486;-62
2024/01/19 00:17:10;;;;;;;58.37;31.03;;;5.10;99.90;;;;;;4146429;28;20545;-62
2024/01/19 00:19:11;;;;;;;53.83;30.17;;;5.10;99.90;;;;;;4146407;28;20957;-60
2024/01/19 00:21:12;;;;;;;67.47;34.47;;;5.00;99.90;;;;;;4146537;28;20041;-60
2024/01/19 00:23:13;;;;;;;57.00;31.10;;;5.00;99.90;;;;;;4146162;28;20457;-61
2024/01/19 00:25:15;;;;;;;56.40;31.00;;;5.00;99.90;;;;;;4146729;28;20487;-60
2024/01/19 00:27:16;;;;;;;56.30;32.07;;;5.10;99.90;;;;;;4145728;28;20030;-62
2024/01/19 00:29:17;;;;;;;60.00;33.87;;;5.10;99.90;;;;;;4146760;28;20084;-62
2024/01/19 00:31:19;;;;;;;59.33;33.57;;;5.10;99.90;;;;;;4146135;28;20042;-61
2024/01/19 00:33:20;;;;;;;65.70;36.50;;;5.10;99.90;;;;;;4146506;28;20100;-62
2024/01/19 00:35:21;;;;;;;66.60;36.20;;;5.10;99.90;;;;;;4146466;28;20046;-61
2024/01/19 00:37:22;;;;;;;68.97;37.60;;;5.20;99.90;;;;;;4146431;28;20030;-61
2024/01/19 00:39:23;;;;;;;71.47;38.57;;;5.10;99.90;;;;;;4146213;28;20084;-61
2024/01/19 00:41:26;;;;;;;72.00;40.33;;;5.10;99.90;;;;;;4146166;28;20038;-62
2024/01/19 00:43:27;;;;;;;66.40;38.17;;;5.10;99.90;;;;;;4146071;28;20181;-61
2024/01/19 00:45:29;;;;;;;71.80;38.70;;;5.10;99.90;;;;;;4145924;28;20050;-61
2024/01/19 00:47:30;;;;;;;64.33;35.83;;;5.10;99.90;;;;;;4144978;28;20100;-61
2024/01/19 00:49:31;;;;;;;51.63;30.43;;;5.10;99.90;;;;;;4146024;28;20367;-61
2024/01/19 00:51:32;;;;;;;42.07;23.80;;;5.20;99.90;;;;;;4144802;28;20030;-61
2024/01/19 00:53:33;;;;;;;38.40;23.03;;;5.20;99.90;;;;;;4145788;28;20093;-60
2024/01/19 00:55:34;;;;;;;84.97;49.37;;;5.30;99.90;;;;;;4145847;28;20092;-62
2024/01/19 00:57:35;;;;;;;62.80;34.50;;;5.30;99.90;;;;;;4145412;28;20479;-61
2024/01/19 00:59:37;;;;;;;64.50;34.00;;;5.20;99.90;;;;;;4146064;28;20025;-60
2024/01/19 01:01:38;;;;;;;56.87;32.53;;;5.00;99.90;;;;;;4145584;28;20449;-61
2024/01/19 01:03:39;;;;;;;51.10;27.90;;;4.90;99.90;;;;;;4145935;28;20060;-60
2024/01/19 01:05:40;;;;;;;57.17;32.77;;;4.90;99.90;;;;;;4145485;28;20034;-61
2024/01/19 01:07:41;;;;;;;64.23;34.80;;;5.00;99.90;;;;;;4145975;28;20042;-61
2024/01/19 01:09:43;;;;;;;52.73;27.20;;;4.90;99.90;;;;;;4145828;28;20438;-61
2024/01/19 01:11:44;;;;;;;57.93;32.67;;;4.90;99.90;;;;;;4145849;28;20034;-61
2024/01/19 01:13:45;;;;;;;59.57;33.47;;;5.00;99.90;;;;;;4145096;28;20092;-62
2024/01/19 01:15:46;;;;;;;57.20;29.77;;;5.10;99.90;;;;;;4145463;28;20034;-61
2024/01/19 01:17:47;;;;;;;51.37;29.90;;;5.10;99.90;;;;;;4145183;28;20030;-61
2024/01/19 01:19:49;;;;;;;44.50;24.60;;;5.10;99.90;;;;;;4145694;28;20083;-60
2024/01/19 01:21:50;;;;;;;37.07;23.17;;;5.10;99.90;;;;;;4145307;28;20034;-61
2024/01/19 01:23:51;;;;;;;41.43;24.30;;;5.20;99.90;;;;;;4145319;28;20030;-61
2024/01/19 01:25:52;;;;;;;40.20;23.20;;;5.20;99.90;;;;;;4145893;28;20450;-61
2024/01/19 01:27:53;;;;;;;38.27;20.97;;;5.20;99.90;;;;;;4143630;28;20041;-61
2024/01/19 01:29:55;;;;;;;32.70;20.60;;;5.30;99.90;;;;;;4144812;28;20060;-61
2024/01/19 01:31:56;;;;;;;51.03;29.37;;;5.30;99.90;;;;;;4128829;28;20046;-61
2024/01/19 01:33:57;;;;;;;34.53;20.73;;;5.30;99.90;;;;;;4141143;28;20135;-62
2024/01/19 01:35:59;;;;;;;36.17;20.30;;;5.30;99.90;;;;;;4144360;28;20037;-62
2024/01/19 01:38:00;;;;;;;39.67;22.40;;;5.40;99.90;;;;;;4145185;28;20131;-62
2024/01/19 01:40:01;;;;;;;36.90;21.63;;;5.50;99.90;;;;;;4144635;28;20046;-62
2024/01/19 01:42:03;;;;;;;39.37;21.73;;;5.50;99.90;;;;;;4145271;28;20569;-62
2024/01/19 01:44:04;;;;;;;40.33;23.83;;;5.50;99.90;;;;;;4145332;28;20041;-61
2024/01/19 01:46:06;;;;;;;44.30;25.73;;;5.50;99.90;;;;;;4144901;28;20639;-61
2024/01/19 01:48:07;;;;;;;43.10;23.40;;;5.50;99.90;;;;;;4143922;28;20033;-62
2024/01/19 01:50:08;;;;;;;33.20;19.90;;;5.50;99.90;;;;;;4144540;28;20100;-62
2024/01/19 01:52:10;;;;;;;33.50;19.30;;;5.50;99.90;;;;;;4144703;28;20041;-62
2024/01/19 01:54:13;;;;;;;27.90;16.17;;;5.50;99.90;;;;;;4144830;28;20034;-62
2024/01/19 01:56:14;;;;;;;24.10;14.70;;;5.60;99.90;;;;;;4144570;28;20100;-62
2024/01/19 01:58:16;;;;;;;22.40;13.50;;;5.60;99.90;;;;;;4144875;28;20104;-63
2024/01/19 02:00:18;;;;;;;24.27;14.60;;;5.70;99.90;;;;;;4144987;28;20096;-62
2024/01/19 02:02:20;;;;;;;25.33;14.80;;;5.80;99.90;;;;;;4143761;28;20042;-62
2024/01/19 02:04:21;;;;;;;18.20;12.30;;;5.90;99.90;;;;;;4145152;28;20042;-63
2024/01/19 02:06:23;;;;;;;26.27;16.87;;;6.00;99.90;;;;;;4144450;28;20092;-62
2024/01/19 02:08:25;;;;;;;21.90;14.07;;;6.00;99.90;;;;;;4145051;28;20870;-63
2024/01/19 02:10:26;;;;;;;31.30;19.40;;;6.00;99.90;;;;;;4144686;28;20037;-60
2024/01/19 02:12:28;;;;;;;35.47;20.80;;;5.90;99.90;;;;;;4144741;28;20417;-63
2024/01/19 02:14:29;;;;;;;31.97;19.77;;;5.80;99.90;;;;;;4144774;28;20038;-62
2024/01/19 02:16:30;;;;;;;32.93;18.93;;;5.60;99.90;;;;;;4143013;28;20050;-63
2024/01/19 02:18:31;;;;;;;35.47;20.97;;;5.50;99.90;;;;;;4144639;28;20029;-63
2024/01/19 02:20:33;;;;;;;36.97;22.03;;;5.30;99.90;;;;;;4144521;28;20038;-62
2024/01/19 02:22:34;;;;;;;42.53;21.83;;;5.10;99.90;;;;;;4144643;28;20796;-62
2024/01/19 02:24:36;;;;;;;35.33;21.97;;;4.90;99.90;;;;;;4143246;28;20077;-61
2024/01/19 02:26:38;;;;;;;34.13;21.20;;;4.80;99.90;;;;;;4144375;28;20433;-62
2024/01/19 02:28:39;;;;;;;35.77;20.93;;;4.70;99.90;;;;;;4144320;28;20033;-62
2024/01/19 02:30:43;;;;;;;30.50;19.20;;;4.60;99.90;;;;;;4144591;28;20116;-62
2024/01/19 02:32:44;;;;;;;37.53;21.17;;;4.60;99.90;;;;;;4142738;28;20089;-61
2024/01/19 02:34:46;;;;;;;36.40;21.00;;;4.60;99.90;;;;;;4144821;28;20441;-62
2024/01/19 02:36:47;;;;;;;29.97;17.13;;;4.60;99.90;;;;;;4143936;28;20072;-64
2024/01/19 02:38:49;;;;;;;42.73;23.90;;;4.60;99.90;;;;;;4144590;28;20557;-61
2024/01/19 02:40:50;;;;;;;48.93;25.57;;;4.60;99.90;;;;;;4144104;28;20072;-62
2024/01/19 02:42:51;;;;;;;42.17;23.53;;;4.50;99.90;;;;;;4144131;28;20095;-61
2024/01/19 02:44:52;;;;;;;43.07;23.60;;;4.30;99.90;;;;;;4144199;28;20046;-62
2024/01/19 02:46:53;;;;;;;47.53;23.77;;;4.30;99.90;;;;;;4144059;28;20146;-63
2024/01/19 02:48:54;;;;;;;47.90;26.03;;;4.20;99.90;;;;;;4144182;28;20026;-58
2024/01/19 02:50:55;;;;;;;41.83;23.17;;;4.20;99.90;;;;;;4144352;28;20029;-62
2024/01/19 02:52:57;;;;;;;41.57;23.73;;;4.20;99.90;;;;;;4144322;28;20086;-61
2024/01/19 02:54:58;;;;;;;41.07;22.77;;;4.20;99.90;;;;;;4142611;28;20061;-63
2024/01/19 02:56:59;;;;;;;39.27;21.40;;;4.30;99.90;;;;;;4144183;28;20268;-62
2024/01/19 02:59:00;;;;;;;44.60;24.20;;;4.30;99.90;;;;;;4144175;28;20333;-63
2024/01/19 03:01:01;;;;;;;40.43;22.60;;;4.40;99.90;;;;;;4144184;28;20268;-62
2024/01/19 03:03:02;;;;;;;46.90;24.33;;;4.40;99.90;;;;;;4143726;28;20782;-61
2024/01/19 03:05:04;;;;;;;45.10;26.00;;;4.30;99.90;;;;;;4144599;28;20042;-62
2024/01/19 03:07:05;;;;;;;59.03;28.47;;;4.30;99.90;;;;;;4143693;28;20438;-62
2024/01/19 03:09:06;;;;;;;48.10;27.23;;;4.10;99.90;;;;;;4144605;28;20030;-62
2024/01/19 03:11:07;;;;;;;55.67;28.90;;;4.00;99.90;;;;;;4143529;28;20018;-62
2024/01/19 03:13:08;;;;;;;58.67;28.93;;;4.10;99.90;;;;;;4143986;28;20279;-62
2024/01/19 03:15:10;;;;;;;58.47;30.17;;;4.00;99.90;;;;;;4143092;28;20307;-62
2024/01/19 03:17:13;;;;;;;48.23;25.27;;;4.00;99.90;;;;;;4144210;28;20694;-61
2024/01/19 03:19:14;;;;;;;52.80;26.60;;;4.00;99.90;;;;;;4143417;28;20274;-62
2024/01/19 03:21:16;;;;;;;58.73;28.97;;;4.00;99.90;;;;;;4143782;28;20349;-62
2024/01/19 03:23:17;;;;;;;52.90;29.03;;;4.00;99.90;;;;;;4143599;28;20314;-62
2024/01/19 03:25:18;;;;;;;51.10;25.87;;;4.00;99.90;;;;;;4144000;28;20267;-62
2024/01/19 03:27:19;;;;;;;46.67;25.77;;;4.00;99.90;;;;;;4143865;28;20818;-62
2024/01/19 03:29:22;;;;;;;47.10;25.90;;;4.10;99.90;;;;;;4143601;28;20276;-62
2024/01/19 03:31:23;;;;;;;39.50;22.23;;;4.10;99.90;;;;;;4144236;28;20663;-62
2024/01/19 03:33:25;;;;;;;47.33;25.83;;;4.20;99.90;;;;;;4143034;28;20687;-59
2024/01/19 03:35:27;;;;;;;51.03;27.00;;;4.30;99.90;;;;;;4144621;28;20385;-61
2024/01/19 03:37:28;;;;;;;42.87;24.87;;;4.40;99.90;;;;;;4143347;28;20317;-60
2024/01/19 03:39:32;;;;;;;43.77;23.43;;;4.40;99.90;;;;;;4143983;28;20275;-62
2024/01/19 03:41:33;;;;;;;40.93;24.27;;;4.40;99.90;;;;;;4142061;28;20271;-62
2024/01/19 03:43:34;;;;;;;47.40;27.40;;;4.50;99.90;;;;;;4143868;28;20080;-62
2024/01/19 03:45:35;;;;;;;47.90;25.87;;;4.50;99.90;;;;;;4143243;28;20794;-62
2024/01/19 03:47:36;;;;;;;47.03;26.47;;;4.40;99.90;;;;;;4143899;28;20283;-62
2024/01/19 03:49:39;;;;;;;47.27;26.60;;;4.40;99.90;;;;;;4143601;28;20030;-62
2024/01/19 03:52:06;;;;;;;42.27;25.83;;;4.30;99.90;;;;;;4143735;28;20307;-60
2024/01/19 03:54:07;;;;;;;45.07;26.00;;;4.30;99.90;;;;;;4143027;28;20345;-61
2024/01/19 03:56:09;;;;;;;39.53;23.93;;;4.30;99.90;;;;;;4143191;28;20345;-60
2024/01/19 03:58:10;;;;;;;41.33;24.50;;;4.30;99.90;;;;;;4143454;28;20033;-62
2024/01/19 04:00:12;;;;;;;40.80;24.33;;;4.20;99.90;;;;;;4143595;28;20076;-61
2024/01/19 04:02:13;;;;;;;37.00;21.70;;;4.20;99.90;;;;;;4143597;28;20034;-62
2024/01/19 04:04:14;;;;;;;41.50;22.63;;;4.30;99.90;;;;;;4143869;28;20318;-61
2024/01/19 04:06:16;;;;;;;50.63;26.77;;;4.30;99.90;;;;;;4143726;28;20271;-61
2024/01/19 04:08:17;;;;;;;56.70;27.17;;;4.30;99.90;;;;;;4143579;28;20100;-61
2024/01/19 04:10:18;;;;;;;51.47;28.70;;;4.20;99.90;;;;;;4143396;28;20671;-62
2024/01/19 04:12:19;;;;;;;49.77;25.83;;;4.10;99.90;;;;;;4143075;28;20259;-63
2024/01/19 04:14:21;;;;;;;41.83;23.57;;;4.00;99.90;;;;;;4143640;28;20050;-61
2024/01/19 04:16:22;;;;;;;40.23;22.53;;;4.00;99.90;;;;;;4143219;28;20295;-61
2024/01/19 04:18:23;;;;;;;36.53;21.50;;;4.00;99.90;;;;;;4143706;28;20333;-60
2024/01/19 04:20:24;;;;;;;41.63;22.90;;;4.10;99.90;;;;;;4143026;28;20267;-61
2024/01/19 04:22:25;;;;;;;49.97;27.70;;;4.10;99.90;;;;;;4143614;28;20322;-61
2024/01/19 04:24:27;;;;;;;52.97;32.50;;;4.10;99.90;;;;;;4142812;28;20263;-61
2024/01/19 04:26:28;;;;;;;43.30;23.80;;;4.10;99.90;;;;;;4145684;28;20026;-62
2024/01/19 04:28:29;;;;;;;44.17;24.37;;;4.20;99.90;;;;;;4146155;28;20298;-61
2024/01/19 04:30:30;;;;;;;43.10;23.83;;;4.30;99.90;;;;;;4146266;28;20310;-61
2024/01/19 04:32:31;;;;;;;36.13;21.93;;;4.30;99.90;;;;;;4145947;28;20679;-61
2024/01/19 04:34:32;;;;;;;37.73;22.20;;;4.50;99.90;;;;;;4146318;28;20655;-62
2024/01/19 04:36:34;;;;;;;42.20;23.60;;;4.60;99.90;;;;;;4146487;28;20487;-61
2024/01/19 04:38:35;;;;;;;35.87;21.60;;;4.70;99.90;;;;;;4145984;28;21044;-60
2024/01/19 04:40:36;;;;;;;40.43;23.57;;;4.80;99.90;;;;;;4146549;28;20279;-62
2024/01/19 04:42:37;;;;;;;42.03;22.93;;;4.90;99.90;;;;;;4145899;28;20042;-61
2024/01/19 04:44:38;;;;;;;45.97;25.33;;;5.00;99.90;;;;;;4146372;28;20280;-62
2024/01/19 04:46:40;;;;;;;40.57;24.60;;;5.00;99.90;;;;;;4145662;28;20026;-62
2024/01/19 04:48:41;;;;;;;43.57;24.73;;;5.00;99.90;;;;;;4145928;28;20040;-63
2024/01/19 04:50:42;;;;;;;41.10;22.30;;;5.00;99.90;;;;;;4145111;28;20341;-61
2024/01/19 04:52:43;;;;;;;39.80;24.20;;;5.00;99.90;;;;;;4146039;28;20022;-61
2024/01/19 04:54:44;;;;;;;42.30;23.83;;;5.00;99.90;;;;;;4144098;28;20046;-63
2024/01/19 04:56:46;;;;;;;40.43;22.13;;;5.00;99.90;;;;;;4145576;28;20096;-60
2024/01/19 04:58:47;;;;;;;44.30;26.17;;;5.00;99.90;;;;;;4145873;28;20034;-63
2024/01/19 05:00:48;;;;;;;39.17;25.03;;;5.00;99.90;;;;;;4144863;28;20038;-61
2024/01/19 05:02:50;;;;;;;39.80;23.67;;;4.90;99.90;;;;;;4145691;28;20026;-62
2024/01/19 05:04:51;;;;;;;38.77;23.30;;;4.90;99.90;;;;;;4145405;28;20034;-62
2024/01/19 05:06:52;;;;;;;40.17;22.80;;;4.90;99.90;;;;;;4145313;28;20030;-62
2024/01/19 05:08:53;;;;;;;39.93;24.47;;;4.90;99.90;;;;;;4144567;28;20072;-63
2024/01/19 05:10:54;;;;;;;39.47;23.73;;;4.90;99.90;;;;;;4145039;28;20104;-63
2024/01/19 05:12:56;;;;;;;39.30;24.40;;;4.90;99.90;;;;;;4144928;28;20391;-62
2024/01/19 05:14:57;;;;;;;38.57;22.63;;;4.90;99.90;;;;;;4145635;28;20474;-63
2024/01/19 05:16:58;;;;;;;44.77;24.10;;;4.90;99.90;;;;;;4144215;28;20088;-63
2024/01/19 05:18:59;;;;;;;36.33;22.33;;;4.90;99.90;;;;;;4145560;28;20042;-62
2024/01/19 05:21:04;;;;;;;40.30;22.63;;;4.90;99.90;;;;;;4144480;28;20038;-62
2024/01/19 05:23:06;;;;;;;44.07;23.37;;;5.00;99.90;;;;;;4145227;28;20133;-62
2024/01/19 05:25:08;;;;;;;41.00;23.50;;;5.00;99.90;;;;;;4144745;28;20101;-62
2024/01/19 05:27:09;;;;;;;40.27;22.57;;;5.10;99.90;;;;;;4144931;28;20427;-62
2024/01/19 05:29:11;;;;;;;38.80;23.47;;;5.10;99.90;;;;;;4144465;28;20045;-61
2024/01/19 05:31:12;;;;;;;40.93;22.23;;;5.10;99.90;;;;;;4145270;28;20104;-63
2024/01/19 05:33:13;;;;;;;35.57;21.20;;;5.00;99.90;;;;;;4143783;28;20450;-63
2024/01/19 05:35:14;;;;;;;35.27;20.73;;;5.00;99.90;;;;;;4141707;28;20375;-63
2024/01/19 05:37:16;;;;;;;39.43;22.87;;;5.00;99.90;;;;;;4138753;28;20096;-63
2024/01/19 05:39:17;;;;;;;36.07;20.50;;;4.90;99.90;;;;;;4137916;28;20041;-64
2024/01/19 05:41:21;;;;;;;30.10;19.20;;;4.80;99.90;;;;;;4142506;28;20482;-62
2024/01/19 05:43:22;;;;;;;30.23;18.87;;;4.80;99.90;;;;;;4144570;28;20088;-63
2024/01/19 05:45:23;;;;;;;31.53;19.33;;;4.80;99.90;;;;;;4144078;28;20112;-60
2024/01/19 05:47:24;;;;;;;32.70;18.60;;;4.80;99.90;;;;;;4143575;28;20576;-62
2024/01/19 05:49:25;;;;;;;30.47;18.77;;;4.70;99.90;;;;;;4144904;28;20120;-62
2024/01/19 05:51:28;;;;;;;31.27;19.63;;;4.70;99.90;;;;;;4143937;28;20615;-62
2024/01/19 05:53:29;;;;;;;35.30;21.27;;;4.70;99.90;;;;;;4144826;28;20437;-60
2024/01/19 05:55:30;;;;;;;33.53;20.57;;;4.70;99.90;;;;;;4143796;28;20021;-59
2024/01/19 05:57:31;;;;;;;34.93;20.47;;;4.80;99.90;;;;;;4145677;28;20050;-65
2024/01/19 05:59:34;;;;;;;36.33;22.17;;;4.80;99.90;;;;;;4144682;28;20467;-63
2024/01/19 06:01:35;;;;;;;33.87;21.37;;;4.70;99.90;;;;;;4143427;28;20260;-64
2024/01/19 06:03:37;;;;;;;35.23;21.53;;;4.70;99.90;;;;;;4141475;28;20080;-57
2024/01/19 06:05:39;;;;;;;29.10;18.93;;;4.70;99.90;;;;;;4142646;28;20030;-59
2024/01/19 06:07:40;;;;;;;32.23;19.93;;;4.70;99.90;;;;;;4144162;28;20100;-58
2024/01/19 06:09:41;;;;;;;34.30;20.53;;;4.70;99.90;;;;;;4144018;28;20532;-61
2024/01/19 06:11:42;;;;;;;32.00;19.57;;;4.70;99.90;;;;;;4144647;28;20076;-64
2024/01/19 06:13:45;;;;;;;37.07;21.93;;;4.70;99.90;;;;;;4144101;28;20275;-62
2024/01/19 06:15:46;;;;;;;31.40;19.77;;;4.70;99.90;;;;;;4144424;28;20061;-60
2024/01/19 06:17:47;;;;;;;35.67;21.67;;;4.80;99.90;;;;;;4144419;28;20175;-61
2024/01/19 06:19:48;;;;;;;33.63;21.33;;;4.80;99.90;;;;;;4144924;28;20076;-58
2024/01/19 06:21:50;;;;;;;44.57;24.63;;;4.80;99.90;;;;;;4144129;28;20498;-61
2024/01/19 06:23:51;;;;;;;47.37;27.20;;;4.90;99.90;;;;;;4144670;28;20030;-61
2024/01/19 06:25:52;;;;;;;37.97;22.40;;;4.80;99.90;;;;;;4143596;28;20091;-63
2024/01/19 06:27:57;;;;;;;42.10;24.87;;;4.80;99.90;;;;;;4144176;28;20100;-61
2024/01/19 06:29:58;;;;;;;43.00;25.70;;;4.70;99.90;;;;;;4144003;28;20088;-63
2024/01/19 06:31:59;;;;;;;39.20;24.50;;;4.80;99.90;;;;;;4144537;28;20030;-61
2024/01/19 06:34:00;;;;;;;38.70;24.47;;;4.80;99.90;;;;;;4144031;28;20268;-61
2024/01/19 06:36:08;;;;;;;42.60;25.37;;;4.80;99.90;;;;;;4144571;28;20728;-60
2024/01/19 06:38:09;;;;;;;37.60;23.67;;;4.80;99.90;;;;;;4144251;28;20096;-59
2024/01/19 06:40:11;;;;;;;37.53;22.67;;;4.80;99.90;;;;;;4143705;28;20076;-63
2024/01/19 06:42:13;;;;;;;35.93;21.73;;;4.90;99.90;;;;;;4144088;28;20165;-62
2024/01/19 06:44:14;;;;;;;28.93;17.67;;;5.00;99.90;;;;;;4143842;28;20029;-61
2024/01/19 06:46:15;;;;;;;28.63;17.83;;;5.00;99.90;;;;;;4143667;28;20021;-63
2024/01/19 06:48:16;;;;;;;30.90;18.00;;;5.20;99.90;;;;;;4143690;28;20042;-63
2024/01/19 06:50:17;;;;;;;31.27;17.43;;;5.20;99.90;;;;;;4142487;28;20092;-62
2024/01/19 06:52:19;;;;;;;27.77;17.10;;;5.30;99.90;;;;;;4143816;28;20034;-62
2024/01/19 06:54:20;;;;;;;44.70;25.33;;;5.40;99.90;;;;;;4143777;28;20026;-63
2024/01/19 06:56:21;;;;;;;37.53;23.00;;;5.40;99.90;;;;;;4143483;28;20041;-62
2024/01/19 06:58:22;;;;;;;40.80;23.60;;;5.40;99.90;;;;;;4144972;28;20529;-58
2024/01/19 07:00:25;;;;;;;37.73;21.50;;;5.40;99.90;;;;;;4136436;28;20021;-61
2024/01/19 07:02:26;;;;;;;26.60;17.20;;;5.50;99.90;;;;;;4142287;28;20096;-62
2024/01/19 07:04:27;;;;;;;28.40;18.17;;;5.50;99.90;;;;;;4139175;28;20437;-61
2024/01/19 07:06:29;;;;;;;26.30;14.20;;;5.50;99.90;;;;;;4146514;28;20486;-62
2024/01/19 07:08:30;;;;;;;27.83;16.57;;;5.50;99.90;;;;;;4143288;28;20131;-61
2024/01/19 07:10:31;;;;;;;26.00;17.93;;;5.60;99.90;;;;;;4138936;28;20092;-61
2024/01/19 07:12:33;;;;;;;26.03;16.33;;;5.60;99.90;;;;;;4138605;28;20096;-58
2024/01/19 07:14:34;;;;;;;23.83;15.47;;;5.60;99.90;;;;;;4143676;28;20336;-64
2024/01/19 07:16:39;;;;;;;26.83;15.00;;;5.70;99.90;;;;;;4143618;28;20042;-60
2024/01/19 07:18:41;;;;;;;25.53;16.03;;;5.80;99.90;;;;;;4143604;28;20486;-59
2024/01/19 07:20:42;;;;;;;31.67;19.17;;;5.80;99.90;;;;;;4143644;28;20045;-58
2024/01/19 07:22:44;;;;;;;28.33;17.43;;;5.80;99.90;;;;;;4143078;28;20072;-58
2024/01/19 07:24:45;;;;;;;32.73;18.83;;;5.80;99.90;;;;;;4153090;28;20021;-57
2024/01/19 07:26:46;;;;;;;32.43;18.37;;;5.80;99.90;;;;;;4159421;28;20069;-59
2024/01/19 07:28:47;;;;;;;32.27;17.10;;;5.80;99.90;;;;;;4144666;28;20450;-62
2024/01/19 07:30:49;;;;;;;30.73;16.33;;;5.80;99.90;;;;;;4143084;28;20552;-58
2024/01/19 07:32:50;;;;;;;29.80;16.77;;;5.90;99.90;;;;;;4143571;28;20038;-60
2024/01/19 07:34:51;;;;;;;23.77;14.87;;;5.90;99.90;;;;;;4147271;28;20088;-59
2024/01/19 07:36:52;;;;;;;23.93;14.80;;;5.90;99.90;;;;;;4160363;28;20509;-59
2024/01/19 07:38:54;;;;;;;27.67;17.37;;;5.90;99.90;;;;;;4143146;28;20038;-58
2024/01/19 07:40:55;;;;;;;26.43;17.07;;;5.90;99.90;;;;;;4143244;28;20041;-60
2024/01/19 07:42:56;;;;;;;26.80;14.53;;;5.90;99.90;;;;;;4142572;28;20099;-60
2024/01/19 07:44:57;;;;;;;23.73;15.03;;;6.00;99.90;;;;;;4141700;28;20046;-60
2024/01/19 07:46:58;;;;;;;20.67;14.40;;;6.00;99.90;;;;;;4142759;28;20042;-59
2024/01/19 07:49:00;;;;;;;24.20;14.73;;;6.10;99.90;;;;;;4143032;28;20383;-56
2024/01/19 07:51:02;;;;;;;20.00;12.87;;;6.10;99.90;;;;;;4143452;28;20564;-59
2024/01/19 07:53:04;;;;;;;21.87;13.07;;;6.10;99.90;;;;;;4142851;28;20034;-60
2024/01/19 07:55:05;;;;;;;24.53;15.83;;;6.20;99.90;;;;;;4142272;28;20483;-59
2024/01/19 07:57:07;;;;;;;20.13;13.80;;;6.20;99.90;;;;;;4141741;28;20426;-61
2024/01/19 07:59:08;;;;;;;21.60;14.10;;;6.20;99.90;;;;;;4142798;28;20086;-62
2024/01/19 08:01:09;;;;;;;19.23;12.13;;;6.30;99.90;;;;;;4144327;28;20092;-61
2024/01/19 08:03:10;;;;;;;20.93;12.67;;;6.30;99.90;;;;;;4146029;28;20092;-59
2024/01/19 08:05:12;;;;;;;18.47;11.93;;;6.40;99.90;;;;;;4145597;28;20042;-60
2024/01/19 08:07:13;;;;;;;19.40;11.07;;;6.40;99.90;;;;;;4146688;28;20030;-62
2024/01/19 08:09:14;;;;;;;17.33;10.53;;;6.50;99.90;;;;;;4145555;28;20034;-59
2024/01/19 08:11:15;;;;;;;16.93;10.97;;;6.50;99.90;;;;;;4145784;28;20113;-60
2024/01/19 08:13:16;;;;;;;21.20;12.07;;;6.50;99.90;;;;;;4145825;28;20564;-59
2024/01/19 08:15:18;;;;;;;16.73;10.47;;;6.50;99.90;;;;;;4146048;28;20111;-61
2024/01/19 08:17:19;;;;;;;17.13;10.27;;;6.60;99.90;;;;;;4145944;28;20038;-62
2024/01/19 08:19:20;;;;;;;16.63;10.90;;;6.60;99.90;;;;;;4146061;28;20560;-60
2024/01/19 08:21:21;;;;;;;16.17;9.60;;;6.70;99.90;;;;;;4145698;28;20021;-60
2024/01/19 08:23:22;;;;;;;17.83;9.83;;;6.70;99.90;;;;;;4143082;28;20120;-61
2024/01/19 08:25:24;;;;;;;16.50;10.33;;;6.70;99.90;;;;;;4145020;28;20093;-62
2024/01/19 08:27:26;;;;;;;13.20;9.87;;;6.80;99.90;;;;;;4145124;28;20088;-61
2024/01/19 08:29:27;;;;;;;19.60;12.27;;;6.80;99.90;;;;;;4144403;28;20059;-61
2024/01/19 08:31:30;;;;;;;15.43;9.47;;;6.90;99.90;;;;;;4157215;28;20095;-61
2024/01/19 08:33:31;;;;;;;18.13;10.30;;;6.90;99.90;;;;;;4152358;28;20103;-60
2024/01/19 08:35:32;;;;;;;13.60;9.37;;;7.00;99.90;;;;;;4151488;28;20072;-59
2024/01/19 08:37:35;;;;;;;13.93;9.90;;;7.00;99.90;;;;;;4151281;28;20054;-62
2024/01/19 08:39:38;;;;;;;14.23;9.50;;;7.00;99.90;;;;;;4143184;28;20061;-59
2024/01/19 08:41:43;;;;;;;13.53;9.13;;;7.10;99.90;;;;;;4142555;28;20104;-61
2024/01/19 08:43:44;;;;;;;14.27;9.60;;;7.10;99.90;;;;;;4146650;28;20030;-61
2024/01/19 08:45:45;;;;;;;13.70;8.47;;;7.20;99.90;;;;;;4142658;28;20026;-63
2024/01/19 08:47:48;;;;;;;12.83;9.23;;;7.20;99.90;;;;;;4160267;28;20045;-62
2024/01/19 08:49:49;;;;;;;14.90;8.73;;;7.20;99.90;;;;;;4147698;28;20037;-60
2024/01/19 08:51:51;;;;;;;13.57;9.30;;;7.20;99.90;;;;;;4145519;28;20018;-61
2024/01/19 08:53:52;;;;;;;12.57;8.43;;;7.30;99.90;;;;;;4144381;28;20042;-61
2024/01/19 08:55:54;;;;;;;13.60;9.43;;;7.30;99.90;;;;;;4145474;28;20042;-59
2024/01/19 08:57:55;;;;;;;14.20;9.97;;;7.40;99.90;;;;;;4145004;28;20050;-62
2024/01/19 08:59:56;;;;;;;16.30;10.60;;;7.40;99.90;;;;;;4145546;28;20100;-62
2024/01/19 09:01:57;;;;;;;14.20;10.07;;;7.40;99.90;;;;;;4145634;28;20084;-61
2024/01/19 09:03:59;;;;;;;13.33;9.77;;;7.40;99.90;;;;;;4145383;28;20030;-60
2024/01/19 09:06:00;;;;;;;16.47;10.03;;;7.40;99.90;;;;;;4145074;28;20080;-61
2024/01/19 09:08:01;;;;;;;14.33;9.60;;;7.40;99.90;;;;;;4145060;28;20060;-62
2024/01/19 09:10:02;;;;;;;10.97;7.97;;;7.50;99.90;;;;;;4144657;28;20042;-61
2024/01/19 09:12:04;;;;;;;12.77;8.57;;;7.60;99.90;;;;;;4153944;28;20049;-59
2024/01/19 09:14:09;;;;;;;12.03;8.77;;;7.60;99.90;;;;;;4149658;28;20057;-61
2024/01/19 09:16:11;;;;;;;15.67;10.37;;;7.70;99.90;;;;;;4144796;28;20111;-61
2024/01/19 09:18:12;;;;;;;24.73;17.90;;;7.70;99.90;;;;;;4145024;28;20042;-62
2024/01/19 09:20:13;;;;;;;19.70;13.87;;;7.80;99.90;;;;;;4145140;28;20049;-62
2024/01/19 09:22:15;;;;;;;15.67;11.27;;;7.80;99.90;;;;;;4145179;28;20033;-55
2024/01/19 09:24:17;;;;;;;18.63;11.57;;;7.80;99.90;;;;;;4143269;28;20049;-59
2024/01/19 09:26:19;;;;;;;20.87;13.37;;;7.80;99.90;;;;;;4144692;28;20050;-60
2024/01/19 09:28:21;;;;;;;35.33;19.03;;;7.80;99.90;;;;;;4144526;28;20033;-60
2024/01/19 09:30:22;;;;;;;27.67;18.47;;;7.80;99.90;;;;;;4144932;28;20898;-61
2024/01/19 09:32:23;;;;;;;31.37;19.27;;;7.70;99.90;;;;;;4144208;28;20549;-60
2024/01/19 09:34:24;;;;;;;33.73;21.67;;;7.60;99.90;;;;;;4145256;28;20042;-60
2024/01/19 09:36:25;;;;;;;24.50;16.27;;;7.60;99.90;;;;;;4144759;28;20037;-60
2024/01/19 09:38:26;;;;;;;15.30;9.57;;;7.50;99.90;;;;;;4144217;28;20145;-58
2024/01/19 09:40:27;;;;;;;10.03;6.40;;;7.30;99.90;;;;;;4127924;28;20426;-62
2024/01/19 09:42:33;;;;;;;5.57;4.93;;;7.10;99.90;;;;;;4145071;28;20029;-60
2024/01/19 09:44:37;;;;;;;9.50;5.90;;;6.80;99.90;;;;;;4155340;28;20506;-63
2024/01/19 09:46:50;;;;;;;5.93;4.60;;;6.60;99.90;;;;;;4161210;28;20038;-63
2024/01/19 09:49:28;;;;;;;5.20;3.93;;;6.30;99.90;;;;;;4157881;28;20100;-61
2024/01/19 09:51:53;;;;;;;4.47;3.53;;;6.00;99.90;;;;;;4128608;28;20506;-60
2024/01/19 09:53:57;;;;;;;6.63;3.20;;;5.80;99.90;;;;;;4143950;28;20430;-58
2024/01/19 09:56:01;;;;;;;6.73;3.33;;;5.60;99.90;;;;;;4144946;28;20034;-60
2024/01/19 09:58:03;;;;;;;4.50;2.60;;;5.40;99.90;;;;;;4144303;28;20366;-61
2024/01/19 10:00:06;;;;;;;5.97;3.03;;;5.30;99.90;;;;;;4144618;28;20462;-60
2024/01/19 10:02:09;;;;;;;14.13;9.77;;;5.10;99.90;;;;;;4143810;28;20095;-58
2024/01/19 10:04:13;;;;;;;4.23;3.27;;;5.00;99.90;;;;;;4144343;28;20088;-61
2024/01/19 10:06:15;;;;;;;4.47;3.20;;;4.90;99.90;;;;;;4144119;28;20433;-60
2024/01/19 10:08:17;;;;;;;9.47;5.73;;;4.90;99.90;;;;;;4143861;28;20086;-56
2024/01/19 10:10:19;;;;;;;13.03;6.37;;;4.80;99.90;;;;;;4143674;28;20490;-60
2024/01/19 10:12:22;;;;;;;4.30;3.03;;;4.70;99.90;;;;;;4144826;28;20030;-60
2024/01/19 10:14:25;;;;;;;29.40;10.23;;;4.60;99.90;;;;;;4144702;28;20050;-61
2024/01/19 10:16:26;;;;;;;6.37;2.50;;;4.50;99.90;;;;;;4143977;28;20088;-61
2024/01/19 10:18:29;;;;;;;14.63;6.77;;;4.40;99.90;;;;;;4144063;28;20042;-60
2024/01/19 10:20:30;;;;;;;14.70;4.87;;;4.40;99.90;;;;;;4143416;28;20434;-59
2024/01/19 10:22:32;;;;;;;2.93;1.70;;;4.30;99.90;;;;;;4146760;28;20324;-55
2024/01/19 10:24:33;;;;;;;6.53;2.73;;;4.20;99.90;;;;;;4150592;28;20856;-58
2024/01/19 10:26:36;;;;;;;11.00;4.57;;;4.20;99.90;;;;;;4144165;28;20814;-59